sensor_id;sensor_type;location;lat;lon;timestamp;P1;durP1;ratioP1;P2;durP2;ratioP2
50549;SDS011;36505;52.512;13.460;2023-02-01T00:01:34;20.98;;;2.78;;
50549;SDS011;36505;52.512;13.460;2023-02-01T00:04:00;25.38;;;3.83;;
50549;SDS011;36505;52.512;13.460;2023-02-01T00:06:25;18.77;;;4.68;;
50549;SDS011;36505;52.512;13.460;2023-02-01T00:08:54;18.10;;;2.67;;
50549;SDS011;36505;52.512;13.460;2023-02-01T00:11:20;32.83;;;3.38;;
50549;SDS011;36505;52.512;13.460;2023-02-01T00:13:47;17.08;;;3.70;;
50549;SDS011;36505;52.512;13.460;2023-02-01T00:16:14;20.52;;;3.63;;
50549;SDS011;36505;52.512;13.460;2023-02-01T00:18:41;17.63;;;3.20;;
50549;SDS011;36505;52.512;13.460;2023-02-01T00:21:10;22.75;;;3.80;;
50549;SDS011;36505;52.512;13.460;2023-02-01T00:23:36;24.50;;;3.33;;
50549;SDS011;36505;52.512;13.460;2023-02-01T00:26:04;21.08;;;3.03;;
50549;SDS011;36505;52.512;13.460;2023-02-01T00:28:31;20.73;;;3.70;;
50549;SDS011;36505;52.512;13.460;2023-02-01T00:30:58;23.85;;;3.72;;
50549;SDS011;36505;52.512;13.460;2023-02-01T00:33:24;26.05;;;3.75;;
50549;SDS011;36505;52.512;13.460;2023-02-01T00:35:49;19.35;;;3.45;;
50549;SDS011;36505;52.512;13.460;2023-02-01T00:38:15;31.67;;;3.65;;
50549;SDS011;36505;52.512;13.460;2023-02-01T00:40:40;17.40;;;2.72;;
50549;SDS011;36505;52.512;13.460;2023-02-01T00:43:05;13.77;;;2.47;;
50549;SDS011;36505;52.512;13.460;2023-02-01T00:45:31;16.77;;;5.15;;
50549;SDS011;36505;52.512;13.460;2023-02-01T00:47:56;16.45;;;3.85;;
50549;SDS011;36505;52.512;13.460;2023-02-01T00:50:21;21.48;;;3.40;;
50549;SDS011;36505;52.512;13.460;2023-02-01T00:52:47;17.60;;;3.30;;
50549;SDS011;36505;52.512;13.460;2023-02-01T00:55:12;18.17;;;3.47;;
50549;SDS011;36505;52.512;13.460;2023-02-01T00:57:38;20.65;;;3.47;;
50549;SDS011;36505;52.512;13.460;2023-02-01T01:00:03;20.20;;;3.28;;
50549;SDS011;36505;52.512;13.460;2023-02-01T01:02:29;15.38;;;4.55;;
50549;SDS011;36505;52.512;13.460;2023-02-01T01:04:54;21.38;;;2.90;;
50549;SDS011;36505;52.512;13.460;2023-02-01T01:07:20;10.38;;;1.75;;
50549;SDS011;36505;52.512;13.460;2023-02-01T01:09:45;14.63;;;2.17;;
50549;SDS011;36505;52.512;13.460;2023-02-01T01:12:11;15.55;;;3.28;;
50549;SDS011;36505;52.512;13.460;2023-02-01T01:14:36;19.33;;;3.45;;
50549;SDS011;36505;52.512;13.460;2023-02-01T01:17:02;14.23;;;3.10;;
50549;SDS011;36505;52.512;13.460;2023-02-01T01:19:27;15.55;;;3.08;;
50549;SDS011;36505;52.512;13.460;2023-02-01T01:21:53;15.27;;;3.75;;
50549;SDS011;36505;52.512;13.460;2023-02-01T01:24:18;14.25;;;2.72;;
50549;SDS011;36505;52.512;13.460;2023-02-01T01:26:43;14.05;;;2.08;;
50549;SDS011;36505;52.512;13.460;2023-02-01T01:29:09;17.50;;;2.20;;
50549;SDS011;36505;52.512;13.460;2023-02-01T01:31:36;18.50;;;2.85;;
50549;SDS011;36505;52.512;13.460;2023-02-01T01:34:01;13.13;;;2.10;;
50549;SDS011;36505;52.512;13.460;2023-02-01T01:36:27;12.40;;;2.53;;
50549;SDS011;36505;52.512;13.460;2023-02-01T01:38:53;15.32;;;2.25;;
50549;SDS011;36505;52.512;13.460;2023-02-01T01:41:20;19.10;;;2.63;;
50549;SDS011;36505;52.512;13.460;2023-02-01T01:43:54;11.68;;;2.88;;
50549;SDS011;36505;52.512;13.460;2023-02-01T01:46:21;15.85;;;2.38;;
50549;SDS011;36505;52.512;13.460;2023-02-01T01:49:37;22.08;;;3.03;;
50549;SDS011;36505;52.512;13.460;2023-02-01T01:51:44;18.80;;;2.85;;
50549;SDS011;36505;52.512;13.460;2023-02-01T01:54:16;20.30;;;2.88;;
50549;SDS011;36505;52.512;13.460;2023-02-01T01:56:53;20.77;;;3.40;;
50549;SDS011;36505;52.512;13.460;2023-02-01T01:59:23;21.65;;;4.07;;
50549;SDS011;36505;52.512;13.460;2023-02-01T02:01:49;13.45;;;2.42;;
50549;SDS011;36505;52.512;13.460;2023-02-01T02:04:15;20.83;;;3.72;;
50549;SDS011;36505;52.512;13.460;2023-02-01T02:06:46;21.02;;;2.63;;
50549;SDS011;36505;52.512;13.460;2023-02-01T02:09:24;18.67;;;2.70;;
50549;SDS011;36505;52.512;13.460;2023-02-01T02:11:50;13.70;;;3.17;;
50549;SDS011;36505;52.512;13.460;2023-02-01T02:14:16;16.95;;;2.92;;
50549;SDS011;36505;52.512;13.460;2023-02-01T02:37:41;18.90;;;2.92;;
50549;SDS011;36505;52.512;13.460;2023-02-01T02:45:36;17.35;;;4.35;;
50549;SDS011;36505;52.512;13.460;2023-02-01T02:48:25;12.73;;;2.15;;
50549;SDS011;36505;52.512;13.460;2023-02-01T02:56:57;16.48;;;2.47;;
50549;SDS011;36505;52.512;13.460;2023-02-01T02:59:43;17.65;;;2.97;;
50549;SDS011;36505;52.512;13.460;2023-02-01T03:02:29;16.10;;;2.45;;
50549;SDS011;36505;52.512;13.460;2023-02-01T03:05:14;12.57;;;3.55;;
50549;SDS011;36505;52.512;13.460;2023-02-01T03:07:54;14.70;;;2.50;;
50549;SDS011;36505;52.512;13.460;2023-02-01T03:19:03;24.50;;;3.67;;
50549;SDS011;36505;52.512;13.460;2023-02-01T03:24:25;20.77;;;2.83;;
50549;SDS011;36505;52.512;13.460;2023-02-01T03:27:11;21.08;;;3.25;;
50549;SDS011;36505;52.512;13.460;2023-02-01T03:32:14;19.40;;;2.53;;
50549;SDS011;36505;52.512;13.460;2023-02-01T03:34:40;24.77;;;3.65;;
50549;SDS011;36505;52.512;13.460;2023-02-01T03:37:06;21.13;;;3.55;;
50549;SDS011;36505;52.512;13.460;2023-02-01T03:42:29;15.32;;;3.33;;
50549;SDS011;36505;52.512;13.460;2023-02-01T03:45:04;17.27;;;4.55;;
50549;SDS011;36505;52.512;13.460;2023-02-01T03:47:35;18.30;;;2.75;;
50549;SDS011;36505;52.512;13.460;2023-02-01T03:50:13;22.95;;;2.95;;
50549;SDS011;36505;52.512;13.460;2023-02-01T03:55:10;19.42;;;2.97;;
50549;SDS011;36505;52.512;13.460;2023-02-01T03:57:45;25.05;;;3.67;;
50549;SDS011;36505;52.512;13.460;2023-02-01T04:00:21;11.75;;;2.95;;
50549;SDS011;36505;52.512;13.460;2023-02-01T04:02:48;21.98;;;4.03;;
50549;SDS011;36505;52.512;13.460;2023-02-01T04:05:13;21.92;;;3.25;;
50549;SDS011;36505;52.512;13.460;2023-02-01T04:07:39;19.50;;;3.28;;
50549;SDS011;36505;52.512;13.460;2023-02-01T04:10:05;16.50;;;2.38;;
50549;SDS011;36505;52.512;13.460;2023-02-01T04:12:31;17.40;;;3.45;;
50549;SDS011;36505;52.512;13.460;2023-02-01T04:14:56;26.88;;;3.03;;
50549;SDS011;36505;52.512;13.460;2023-02-01T04:17:23;18.63;;;3.10;;
50549;SDS011;36505;52.512;13.460;2023-02-01T04:19:48;18.38;;;3.00;;
50549;SDS011;36505;52.512;13.460;2023-02-01T04:22:14;21.05;;;2.83;;
50549;SDS011;36505;52.512;13.460;2023-02-01T04:24:39;15.93;;;2.63;;
50549;SDS011;36505;52.512;13.460;2023-02-01T04:27:04;18.02;;;3.08;;
50549;SDS011;36505;52.512;13.460;2023-02-01T04:29:30;19.42;;;3.20;;
50549;SDS011;36505;52.512;13.460;2023-02-01T04:31:55;20.83;;;4.15;;
50549;SDS011;36505;52.512;13.460;2023-02-01T04:34:31;10.63;;;2.53;;
50549;SDS011;36505;52.512;13.460;2023-02-01T04:36:59;16.23;;;2.80;;
50549;SDS011;36505;52.512;13.460;2023-02-01T04:39:25;16.50;;;2.72;;
50549;SDS011;36505;52.512;13.460;2023-02-01T04:41:51;25.08;;;3.28;;
50549;SDS011;36505;52.512;13.460;2023-02-01T04:44:17;22.48;;;3.55;;
50549;SDS011;36505;52.512;13.460;2023-02-01T04:46:44;20.48;;;4.38;;
50549;SDS011;36505;52.512;13.460;2023-02-01T04:49:14;16.70;;;3.05;;
50549;SDS011;36505;52.512;13.460;2023-02-01T04:51:40;25.85;;;3.95;;
50549;SDS011;36505;52.512;13.460;2023-02-01T04:54:06;23.08;;;3.78;;
50549;SDS011;36505;52.512;13.460;2023-02-01T04:56:32;23.17;;;3.55;;
50549;SDS011;36505;52.512;13.460;2023-02-01T04:58:59;25.30;;;3.53;;
50549;SDS011;36505;52.512;13.460;2023-02-01T05:01:27;30.23;;;3.33;;
50549;SDS011;36505;52.512;13.460;2023-02-01T05:03:53;20.92;;;3.05;;
50549;SDS011;36505;52.512;13.460;2023-02-01T05:06:18;19.35;;;4.03;;
50549;SDS011;36505;52.512;13.460;2023-02-01T05:08:43;25.02;;;4.60;;
50549;SDS011;36505;52.512;13.460;2023-02-01T05:11:09;20.48;;;5.35;;
50549;SDS011;36505;52.512;13.460;2023-02-01T05:13:57;22.92;;;4.10;;
50549;SDS011;36505;52.512;13.460;2023-02-01T05:16:24;24.23;;;4.15;;
50549;SDS011;36505;52.512;13.460;2023-02-01T05:18:53;16.42;;;3.60;;
50549;SDS011;36505;52.512;13.460;2023-02-01T05:21:19;19.17;;;3.33;;
50549;SDS011;36505;52.512;13.460;2023-02-01T05:23:45;21.80;;;3.88;;
50549;SDS011;36505;52.512;13.460;2023-02-01T05:26:31;18.45;;;3.45;;
50549;SDS011;36505;52.512;13.460;2023-02-01T05:32:05;19.20;;;3.60;;
50549;SDS011;36505;52.512;13.460;2023-02-01T05:35:05;30.30;;;3.80;;
50549;SDS011;36505;52.512;13.460;2023-02-01T05:40:57;19.27;;;3.20;;
50549;SDS011;36505;52.512;13.460;2023-02-01T05:43:26;28.70;;;3.25;;
50549;SDS011;36505;52.512;13.460;2023-02-01T05:46:00;18.52;;;5.88;;
50549;SDS011;36505;52.512;13.460;2023-02-01T05:48:34;18.05;;;3.80;;
50549;SDS011;36505;52.512;13.460;2023-02-01T05:51:00;23.80;;;6.32;;
50549;SDS011;36505;52.512;13.460;2023-02-01T05:53:25;32.58;;;5.13;;
50549;SDS011;36505;52.512;13.460;2023-02-01T05:56:14;13.88;;;3.22;;
50549;SDS011;36505;52.512;13.460;2023-02-01T05:59:00;17.27;;;2.90;;
50549;SDS011;36505;52.512;13.460;2023-02-01T06:02:32;13.60;;;3.63;;
50549;SDS011;36505;52.512;13.460;2023-02-01T06:08:39;17.67;;;3.75;;
50549;SDS011;36505;52.512;13.460;2023-02-01T06:13:51;20.77;;;4.00;;
50549;SDS011;36505;52.512;13.460;2023-02-01T06:16:17;18.42;;;3.70;;
50549;SDS011;36505;52.512;13.460;2023-02-01T06:18:42;20.52;;;4.45;;
50549;SDS011;36505;52.512;13.460;2023-02-01T06:21:08;15.98;;;4.30;;
50549;SDS011;36505;52.512;13.460;2023-02-01T06:23:33;20.27;;;4.50;;
50549;SDS011;36505;52.512;13.460;2023-02-01T06:26:00;22.98;;;4.22;;
50549;SDS011;36505;52.512;13.460;2023-02-01T06:28:31;21.42;;;3.60;;
50549;SDS011;36505;52.512;13.460;2023-02-01T06:30:57;12.95;;;2.72;;
50549;SDS011;36505;52.512;13.460;2023-02-01T06:33:23;19.17;;;5.28;;
50549;SDS011;36505;52.512;13.460;2023-02-01T06:35:56;19.42;;;4.45;;
50549;SDS011;36505;52.512;13.460;2023-02-01T06:38:23;23.98;;;4.20;;
50549;SDS011;36505;52.512;13.460;2023-02-01T06:40:51;15.55;;;3.80;;
50549;SDS011;36505;52.512;13.460;2023-02-01T06:45:47;24.60;;;5.45;;
50549;SDS011;36505;52.512;13.460;2023-02-01T06:48:12;17.42;;;3.28;;
50549;SDS011;36505;52.512;13.460;2023-02-01T06:50:38;19.25;;;5.32;;
50549;SDS011;36505;52.512;13.460;2023-02-01T06:53:03;20.27;;;4.32;;
50549;SDS011;36505;52.512;13.460;2023-02-01T06:55:29;22.73;;;2.97;;
50549;SDS011;36505;52.512;13.460;2023-02-01T06:57:55;19.05;;;4.18;;
50549;SDS011;36505;52.512;13.460;2023-02-01T07:00:24;18.73;;;3.35;;
50549;SDS011;36505;52.512;13.460;2023-02-01T07:02:50;12.75;;;3.47;;
50549;SDS011;36505;52.512;13.460;2023-02-01T07:05:16;22.95;;;4.53;;
50549;SDS011;36505;52.512;13.460;2023-02-01T07:07:41;12.55;;;3.17;;
50549;SDS011;36505;52.512;13.460;2023-02-01T07:10:08;15.27;;;2.95;;
50549;SDS011;36505;52.512;13.460;2023-02-01T07:12:34;17.88;;;4.03;;
50549;SDS011;36505;52.512;13.460;2023-02-01T07:14:59;19.67;;;3.97;;
50549;SDS011;36505;52.512;13.460;2023-02-01T07:17:26;18.75;;;4.95;;
50549;SDS011;36505;52.512;13.460;2023-02-01T07:19:53;19.15;;;2.95;;
50549;SDS011;36505;52.512;13.460;2023-02-01T07:22:19;13.98;;;3.35;;
50549;SDS011;36505;52.512;13.460;2023-02-01T07:24:44;17.42;;;3.88;;
50549;SDS011;36505;52.512;13.460;2023-02-01T07:27:10;21.80;;;3.95;;
50549;SDS011;36505;52.512;13.460;2023-02-01T07:29:35;15.70;;;3.22;;
50549;SDS011;36505;52.512;13.460;2023-02-01T07:32:00;12.60;;;3.13;;
50549;SDS011;36505;52.512;13.460;2023-02-01T07:34:27;20.00;;;4.07;;
50549;SDS011;36505;52.512;13.460;2023-02-01T07:36:53;17.67;;;4.18;;
50549;SDS011;36505;52.512;13.460;2023-02-01T07:39:18;13.00;;;3.58;;
50549;SDS011;36505;52.512;13.460;2023-02-01T07:41:43;26.02;;;4.07;;
50549;SDS011;36505;52.512;13.460;2023-02-01T07:44:09;13.18;;;3.85;;
50549;SDS011;36505;52.512;13.460;2023-02-01T07:46:34;16.35;;;4.07;;
50549;SDS011;36505;52.512;13.460;2023-02-01T07:49:00;19.58;;;4.32;;
50549;SDS011;36505;52.512;13.460;2023-02-01T07:51:26;16.20;;;3.80;;
50549;SDS011;36505;52.512;13.460;2023-02-01T07:53:51;11.55;;;3.08;;
50549;SDS011;36505;52.512;13.460;2023-02-01T07:56:17;10.57;;;3.28;;
50549;SDS011;36505;52.512;13.460;2023-02-01T07:58:51;20.48;;;3.75;;
50549;SDS011;36505;52.512;13.460;2023-02-01T08:01:21;19.02;;;4.90;;
50549;SDS011;36505;52.512;13.460;2023-02-01T08:03:52;17.83;;;2.88;;
50549;SDS011;36505;52.512;13.460;2023-02-01T08:06:19;15.43;;;4.05;;
50549;SDS011;36505;52.512;13.460;2023-02-01T08:08:46;13.60;;;2.97;;
50549;SDS011;36505;52.512;13.460;2023-02-01T08:11:12;14.07;;;3.20;;
50549;SDS011;36505;52.512;13.460;2023-02-01T08:13:39;14.38;;;2.88;;
50549;SDS011;36505;52.512;13.460;2023-02-01T08:16:06;13.55;;;3.38;;
50549;SDS011;36505;52.512;13.460;2023-02-01T08:18:33;13.98;;;3.72;;
50549;SDS011;36505;52.512;13.460;2023-02-01T08:21:07;19.48;;;3.95;;
50549;SDS011;36505;52.512;13.460;2023-02-01T08:23:43;14.45;;;3.67;;
50549;SDS011;36505;52.512;13.460;2023-02-01T08:28:47;14.88;;;4.28;;
50549;SDS011;36505;52.512;13.460;2023-02-01T08:31:18;13.52;;;3.60;;
50549;SDS011;36505;52.512;13.460;2023-02-01T08:33:48;10.23;;;2.50;;
50549;SDS011;36505;52.512;13.460;2023-02-01T08:36:16;9.27;;;2.78;;
50549;SDS011;36505;52.512;13.460;2023-02-01T08:38:42;12.98;;;2.70;;
50549;SDS011;36505;52.512;13.460;2023-02-01T08:41:11;21.90;;;9.32;;
50549;SDS011;36505;52.512;13.460;2023-02-01T08:43:39;13.68;;;5.10;;
50549;SDS011;36505;52.512;13.460;2023-02-01T08:46:04;11.40;;;3.35;;
50549;SDS011;36505;52.512;13.460;2023-02-01T08:48:31;13.07;;;3.67;;
50549;SDS011;36505;52.512;13.460;2023-02-01T08:50:57;10.32;;;2.42;;
50549;SDS011;36505;52.512;13.460;2023-02-01T08:53:26;10.98;;;2.83;;
50549;SDS011;36505;52.512;13.460;2023-02-01T08:55:52;10.70;;;3.92;;
50549;SDS011;36505;52.512;13.460;2023-02-01T08:58:17;9.73;;;3.15;;
50549;SDS011;36505;52.512;13.460;2023-02-01T09:00:43;9.98;;;2.75;;
50549;SDS011;36505;52.512;13.460;2023-02-01T09:03:10;9.60;;;3.25;;
50549;SDS011;36505;52.512;13.460;2023-02-01T09:05:36;14.15;;;3.78;;
50549;SDS011;36505;52.512;13.460;2023-02-01T09:08:01;6.97;;;2.60;;
50549;SDS011;36505;52.512;13.460;2023-02-01T09:10:27;7.65;;;2.40;;
50549;SDS011;36505;52.512;13.460;2023-02-01T09:12:52;8.30;;;2.42;;
50549;SDS011;36505;52.512;13.460;2023-02-01T09:15:18;7.43;;;2.50;;
50549;SDS011;36505;52.512;13.460;2023-02-01T09:17:43;9.30;;;2.22;;
50549;SDS011;36505;52.512;13.460;2023-02-01T09:20:08;6.13;;;2.33;;
50549;SDS011;36505;52.512;13.460;2023-02-01T09:22:34;9.95;;;2.72;;
50549;SDS011;36505;52.512;13.460;2023-02-01T09:25:00;7.75;;;3.72;;
50549;SDS011;36505;52.512;13.460;2023-02-01T09:27:25;7.85;;;2.63;;
50549;SDS011;36505;52.512;13.460;2023-02-01T09:29:51;9.85;;;2.78;;
50549;SDS011;36505;52.512;13.460;2023-02-01T09:32:20;5.70;;;1.75;;
50549;SDS011;36505;52.512;13.460;2023-02-01T09:34:47;7.75;;;1.55;;
50549;SDS011;36505;52.512;13.460;2023-02-01T09:37:14;4.22;;;1.77;;
50549;SDS011;36505;52.512;13.460;2023-02-01T09:39:40;9.05;;;2.40;;
50549;SDS011;36505;52.512;13.460;2023-02-01T09:42:29;4.18;;;1.90;;
50549;SDS011;36505;52.512;13.460;2023-02-01T09:47:51;8.32;;;2.22;;
50549;SDS011;36505;52.512;13.460;2023-02-01T09:50:35;9.50;;;1.75;;
50549;SDS011;36505;52.512;13.460;2023-02-01T09:53:05;8.80;;;3.28;;
50549;SDS011;36505;52.512;13.460;2023-02-01T09:55:39;8.90;;;3.65;;
50549;SDS011;36505;52.512;13.460;2023-02-01T10:00:38;9.27;;;2.13;;
50549;SDS011;36505;52.512;13.460;2023-02-01T10:03:09;4.75;;;1.13;;
50549;SDS011;36505;52.512;13.460;2023-02-01T10:08:38;4.30;;;1.48;;
50549;SDS011;36505;52.512;13.460;2023-02-01T10:14:10;9.10;;;2.15;;
50549;SDS011;36505;52.512;13.460;2023-02-01T10:22:52;11.65;;;1.83;;
50549;SDS011;36505;52.512;13.460;2023-02-01T10:25:31;7.78;;;1.67;;
50549;SDS011;36505;52.512;13.460;2023-02-01T10:28:17;3.08;;;1.20;;
50549;SDS011;36505;52.512;13.460;2023-02-01T10:30:44;5.80;;;1.92;;
50549;SDS011;36505;52.512;13.460;2023-02-01T10:33:15;4.22;;;1.35;;
50549;SDS011;36505;52.512;13.460;2023-02-01T10:35:44;8.55;;;2.13;;
50549;SDS011;36505;52.512;13.460;2023-02-01T10:38:32;8.98;;;2.55;;
50549;SDS011;36505;52.512;13.460;2023-02-01T10:41:02;6.90;;;1.70;;
50549;SDS011;36505;52.512;13.460;2023-02-01T10:43:34;8.82;;;1.67;;
50549;SDS011;36505;52.512;13.460;2023-02-01T10:46:00;7.45;;;1.73;;
50549;SDS011;36505;52.512;13.460;2023-02-01T10:48:25;3.92;;;1.65;;
50549;SDS011;36505;52.512;13.460;2023-02-01T10:56:13;5.72;;;1.63;;
50549;SDS011;36505;52.512;13.460;2023-02-01T10:58:43;6.95;;;1.58;;
50549;SDS011;36505;52.512;13.460;2023-02-01T11:01:17;6.55;;;1.67;;
50549;SDS011;36505;52.512;13.460;2023-02-01T11:08:59;9.88;;;1.50;;
50549;SDS011;36505;52.512;13.460;2023-02-01T11:11:27;10.20;;;3.15;;
50549;SDS011;36505;52.512;13.460;2023-02-01T11:13:57;5.70;;;1.80;;
50549;SDS011;36505;52.512;13.460;2023-02-01T11:16:30;7.78;;;2.33;;
50549;SDS011;36505;52.512;13.460;2023-02-01T11:19:00;6.25;;;1.25;;
50549;SDS011;36505;52.512;13.460;2023-02-01T11:21:25;7.32;;;2.05;;
50549;SDS011;36505;52.512;13.460;2023-02-01T11:23:51;11.60;;;3.15;;
50549;SDS011;36505;52.512;13.460;2023-02-01T11:26:23;13.18;;;3.20;;
50549;SDS011;36505;52.512;13.460;2023-02-01T11:28:52;11.70;;;2.85;;
50549;SDS011;36505;52.512;13.460;2023-02-01T11:31:23;9.73;;;2.47;;
50549;SDS011;36505;52.512;13.460;2023-02-01T11:33:51;12.98;;;2.90;;
50549;SDS011;36505;52.512;13.460;2023-02-01T11:36:21;7.85;;;1.55;;
50549;SDS011;36505;52.512;13.460;2023-02-01T11:44:39;16.52;;;2.97;;
50549;SDS011;36505;52.512;13.460;2023-02-01T11:47:22;11.45;;;3.22;;
50549;SDS011;36505;52.512;13.460;2023-02-01T11:49:48;9.43;;;3.33;;
50549;SDS011;36505;52.512;13.460;2023-02-01T12:14:45;7.80;;;3.30;;
50549;SDS011;36505;52.512;13.460;2023-02-01T12:25:21;16.65;;;3.47;;
50549;SDS011;36505;52.512;13.460;2023-02-01T12:28:06;10.35;;;2.58;;
50549;SDS011;36505;52.512;13.460;2023-02-01T12:36:36;10.32;;;2.28;;
50549;SDS011;36505;52.512;13.460;2023-02-01T12:39:34;10.90;;;2.00;;
50549;SDS011;36505;52.512;13.460;2023-02-01T12:44:59;7.65;;;2.20;;
50549;SDS011;36505;52.512;13.460;2023-02-01T12:47:39;11.35;;;1.88;;
50549;SDS011;36505;52.512;13.460;2023-02-01T12:53:09;14.90;;;3.70;;
50549;SDS011;36505;52.512;13.460;2023-02-01T12:55:47;8.93;;;2.50;;
50549;SDS011;36505;52.512;13.460;2023-02-01T13:01:06;13.88;;;3.55;;
50549;SDS011;36505;52.512;13.460;2023-02-01T13:06:15;17.77;;;3.28;;
50549;SDS011;36505;52.512;13.460;2023-02-01T13:08:48;6.65;;;2.97;;
50549;SDS011;36505;52.512;13.460;2023-02-01T13:16:25;11.40;;;1.98;;
50549;SDS011;36505;52.512;13.460;2023-02-01T13:21:44;11.40;;;2.47;;
50549;SDS011;36505;52.512;13.460;2023-02-01T13:24:21;9.45;;;3.05;;
50549;SDS011;36505;52.512;13.460;2023-02-01T13:26:53;9.35;;;2.20;;
50549;SDS011;36505;52.512;13.460;2023-02-01T13:29:20;14.05;;;3.92;;
50549;SDS011;36505;52.512;13.460;2023-02-01T13:40:26;8.75;;;2.13;;
50549;SDS011;36505;52.512;13.460;2023-02-01T13:42:57;9.85;;;2.15;;
50549;SDS011;36505;52.512;13.460;2023-02-01T13:45:30;9.98;;;2.15;;
50549;SDS011;36505;52.512;13.460;2023-02-01T13:48:00;13.80;;;2.83;;
50549;SDS011;36505;52.512;13.460;2023-02-01T13:50:30;17.65;;;3.72;;
50549;SDS011;36505;52.512;13.460;2023-02-01T13:53:04;17.30;;;3.95;;
50549;SDS011;36505;52.512;13.460;2023-02-01T13:55:40;8.32;;;2.25;;
50549;SDS011;36505;52.512;13.460;2023-02-01T14:00:40;8.18;;;2.35;;
50549;SDS011;36505;52.512;13.460;2023-02-01T14:03:13;13.40;;;3.33;;
50549;SDS011;36505;52.512;13.460;2023-02-01T14:10:51;12.30;;;2.67;;
50549;SDS011;36505;52.512;13.460;2023-02-01T14:23:40;12.95;;;2.78;;
50549;SDS011;36505;52.512;13.460;2023-02-01T14:26:54;12.48;;;2.47;;
50549;SDS011;36505;52.512;13.460;2023-02-01T14:42:21;13.20;;;3.53;;
50549;SDS011;36505;52.512;13.460;2023-02-01T14:47:53;12.98;;;2.97;;
50549;SDS011;36505;52.512;13.460;2023-02-01T14:55:41;19.73;;;4.80;;
50549;SDS011;36505;52.512;13.460;2023-02-01T15:01:01;8.98;;;2.65;;
50549;SDS011;36505;52.512;13.460;2023-02-01T15:06:22;9.30;;;2.60;;
50549;SDS011;36505;52.512;13.460;2023-02-01T15:12:04;14.18;;;2.78;;
50549;SDS011;36505;52.512;13.460;2023-02-01T15:14:40;10.02;;;2.55;;
50549;SDS011;36505;52.512;13.460;2023-02-01T15:20:13;8.73;;;3.13;;
50549;SDS011;36505;52.512;13.460;2023-02-01T15:23:05;9.17;;;2.17;;
50549;SDS011;36505;52.512;13.460;2023-02-01T15:25:40;5.93;;;1.67;;
50549;SDS011;36505;52.512;13.460;2023-02-01T15:28:12;8.73;;;2.15;;
50549;SDS011;36505;52.512;13.460;2023-02-01T15:30:39;7.57;;;1.55;;
50549;SDS011;36505;52.512;13.460;2023-02-01T15:33:14;5.38;;;1.35;;
50549;SDS011;36505;52.512;13.460;2023-02-01T15:38:19;6.95;;;1.85;;
50549;SDS011;36505;52.512;13.460;2023-02-01T15:46:22;7.28;;;1.98;;
50549;SDS011;36505;52.512;13.460;2023-02-01T15:48:53;5.13;;;1.35;;
50549;SDS011;36505;52.512;13.460;2023-02-01T15:51:23;4.00;;;1.10;;
50549;SDS011;36505;52.512;13.460;2023-02-01T15:53:55;2.65;;;1.50;;
50549;SDS011;36505;52.512;13.460;2023-02-01T15:56:24;1.95;;;1.10;;
50549;SDS011;36505;52.512;13.460;2023-02-01T15:58:58;3.20;;;1.13;;
50549;SDS011;36505;52.512;13.460;2023-02-01T16:01:26;1.00;;;0.65;;
50549;SDS011;36505;52.512;13.460;2023-02-01T16:04:12;3.25;;;0.88;;
50549;SDS011;36505;52.512;13.460;2023-02-01T16:06:54;1.33;;;0.77;;
50549;SDS011;36505;52.512;13.460;2023-02-01T16:09:23;4.25;;;0.77;;
50549;SDS011;36505;52.512;13.460;2023-02-01T16:11:59;1.58;;;0.80;;
50549;SDS011;36505;52.512;13.460;2023-02-01T16:14:26;1.58;;;0.80;;
50549;SDS011;36505;52.512;13.460;2023-02-01T16:16:52;1.88;;;1.70;;
50549;SDS011;36505;52.512;13.460;2023-02-01T16:19:19;0.90;;;0.60;;
50549;SDS011;36505;52.512;13.460;2023-02-01T16:21:44;1.23;;;0.70;;
50549;SDS011;36505;52.512;13.460;2023-02-01T16:24:10;1.67;;;0.70;;
50549;SDS011;36505;52.512;13.460;2023-02-01T16:26:37;8.52;;;2.10;;
50549;SDS011;36505;52.512;13.460;2023-02-01T16:29:03;2.53;;;1.20;;
50549;SDS011;36505;52.512;13.460;2023-02-01T16:31:31;2.25;;;0.95;;
50549;SDS011;36505;52.512;13.460;2023-02-01T16:33:59;1.88;;;0.80;;
50549;SDS011;36505;52.512;13.460;2023-02-01T16:36:25;1.50;;;0.68;;
50549;SDS011;36505;52.512;13.460;2023-02-01T16:38:52;2.13;;;0.82;;
50549;SDS011;36505;52.512;13.460;2023-02-01T16:41:19;2.30;;;0.93;;
50549;SDS011;36505;52.512;13.460;2023-02-01T16:43:45;4.45;;;1.50;;
50549;SDS011;36505;52.512;13.460;2023-02-01T16:46:14;1.10;;;0.95;;
50549;SDS011;36505;52.512;13.460;2023-02-01T16:48:50;2.05;;;1.00;;
50549;SDS011;36505;52.512;13.460;2023-02-01T16:51:18;3.28;;;1.15;;
50549;SDS011;36505;52.512;13.460;2023-02-01T16:53:44;1.42;;;1.10;;
50549;SDS011;36505;52.512;13.460;2023-02-01T16:56:12;1.73;;;1.00;;
50549;SDS011;36505;52.512;13.460;2023-02-01T16:58:40;1.80;;;0.80;;
50549;SDS011;36505;52.512;13.460;2023-02-01T17:01:07;2.63;;;1.17;;
50549;SDS011;36505;52.512;13.460;2023-02-01T17:03:34;1.88;;;1.15;;
50549;SDS011;36505;52.512;13.460;2023-02-01T17:05:59;1.75;;;0.80;;
50549;SDS011;36505;52.512;13.460;2023-02-01T17:08:29;2.55;;;1.00;;
50549;SDS011;36505;52.512;13.460;2023-02-01T17:10:58;5.05;;;1.10;;
50549;SDS011;36505;52.512;13.460;2023-02-01T17:13:23;1.65;;;0.80;;
50549;SDS011;36505;52.512;13.460;2023-02-01T17:15:51;4.57;;;1.30;;
50549;SDS011;36505;52.512;13.460;2023-02-01T17:18:37;4.07;;;1.30;;
50549;SDS011;36505;52.512;13.460;2023-02-01T17:21:03;2.80;;;1.35;;
50549;SDS011;36505;52.512;13.460;2023-02-01T17:23:30;3.67;;;1.00;;
50549;SDS011;36505;52.512;13.460;2023-02-01T17:25:55;4.45;;;1.00;;
50549;SDS011;36505;52.512;13.460;2023-02-01T17:28:21;7.38;;;1.80;;
50549;SDS011;36505;52.512;13.460;2023-02-01T17:30:47;3.15;;;1.50;;
50549;SDS011;36505;52.512;13.460;2023-02-01T17:36:00;2.05;;;1.20;;
50549;SDS011;36505;52.512;13.460;2023-02-01T17:38:26;5.97;;;1.27;;
50549;SDS011;36505;52.512;13.460;2023-02-01T17:40:52;6.88;;;1.30;;
50549;SDS011;36505;52.512;13.460;2023-02-01T17:43:19;2.60;;;1.60;;
50549;SDS011;36505;52.512;13.460;2023-02-01T17:48:16;10.63;;;1.45;;
50549;SDS011;36505;52.512;13.460;2023-02-01T17:50:43;6.28;;;2.70;;
50549;SDS011;36505;52.512;13.460;2023-02-01T17:53:10;11.32;;;2.38;;
50549;SDS011;36505;52.512;13.460;2023-02-01T17:55:43;4.10;;;1.48;;
50549;SDS011;36505;52.512;13.460;2023-02-01T17:58:10;4.20;;;1.92;;
50549;SDS011;36505;52.512;13.460;2023-02-01T18:00:37;7.68;;;1.80;;
50549;SDS011;36505;52.512;13.460;2023-02-01T18:03:03;5.82;;;2.17;;
50549;SDS011;36505;52.512;13.460;2023-02-01T18:05:39;7.88;;;1.88;;
50549;SDS011;36505;52.512;13.460;2023-02-01T18:08:07;5.82;;;1.55;;
50549;SDS011;36505;52.512;13.460;2023-02-01T18:10:32;8.05;;;2.40;;
50549;SDS011;36505;52.512;13.460;2023-02-01T18:12:59;10.18;;;2.63;;
50549;SDS011;36505;52.512;13.460;2023-02-01T18:15:25;6.55;;;1.90;;
50549;SDS011;36505;52.512;13.460;2023-02-01T18:17:52;12.48;;;2.97;;
50549;SDS011;36505;52.512;13.460;2023-02-01T18:20:19;12.48;;;3.35;;
50549;SDS011;36505;52.512;13.460;2023-02-01T18:22:46;10.77;;;1.98;;
50549;SDS011;36505;52.512;13.460;2023-02-01T18:25:14;5.97;;;2.33;;
50549;SDS011;36505;52.512;13.460;2023-02-01T18:27:41;7.93;;;2.60;;
50549;SDS011;36505;52.512;13.460;2023-02-01T18:30:07;7.18;;;2.05;;
50549;SDS011;36505;52.512;13.460;2023-02-01T18:32:33;8.32;;;1.60;;